Terminal Aerodrome Forecast
Issued by NWS

Home | Current Version | Previous Version | Graphics & Text | Print | Product List | Glossary On
Versions: 1 2 3 4 5 6 7 8 9 10 11 12 13 14 15 16 17 18 19 20 21 22
000
FTUS43 KICT 161950 AAA
TAFCNU
TAF AMD
KCNU 161950Z 1620/1718 18014G20KT P6SM VCTS SCT050 BKN100CB
      TEMPO 1621/1623 VRB15G30KT 5SM TSRA OVC050CB
     FM170000 16012KT P6SM VCTS BKN090CB
     FM170600 VRB04KT P6SM VCTS OVC070CB
     FM170800 03008KT P6SM VCTS OVC040CB
     FM171200 04007KT P6SM OVC030=

USA.gov is the U.S. government's official web portal to all federal, state and local government web resources and services.